sensor_id;sensor_type;location;lat;lon;timestamp;temperature;humidity
9486;DHT22;4781;48.776;9.200;2023-11-19T00:00:22;8.40;99.90
9486;DHT22;4781;48.776;9.200;2023-11-19T00:02:51;8.50;99.90
9486;DHT22;4781;48.776;9.200;2023-11-19T00:05:19;8.60;99.90
9486;DHT22;4781;48.776;9.200;2023-11-19T00:07:47;8.70;99.90
9486;DHT22;4781;48.776;9.200;2023-11-19T00:10:17;8.70;99.90
9486;DHT22;4781;48.776;9.200;2023-11-19T00:12:48;8.80;99.90
9486;DHT22;4781;48.776;9.200;2023-11-19T00:15:17;8.90;99.90
9486;DHT22;4781;48.776;9.200;2023-11-19T00:17:47;8.90;99.90
9486;DHT22;4781;48.776;9.200;2023-11-19T00:20:21;9.00;99.90
9486;DHT22;4781;48.776;9.200;2023-11-19T00:22:46;9.00;99.90
9486;DHT22;4781;48.776;9.200;2023-11-19T00:25:16;9.00;99.90
9486;DHT22;4781;48.776;9.200;2023-11-19T00:27:45;9.10;99.90
9486;DHT22;4781;48.776;9.200;2023-11-19T00:30:14;9.10;99.90
9486;DHT22;4781;48.776;9.200;2023-11-19T00:32:43;9.10;99.90
9486;DHT22;4781;48.776;9.200;2023-11-19T00:35:12;9.10;99.90
9486;DHT22;4781;48.776;9.200;2023-11-19T00:37:40;9.10;99.90
9486;DHT22;4781;48.776;9.200;2023-11-19T00:40:13;9.20;99.90
9486;DHT22;4781;48.776;9.200;2023-11-19T00:42:44;9.20;99.90
9486;DHT22;4781;48.776;9.200;2023-11-19T00:45:12;9.20;99.90
9486;DHT22;4781;48.776;9.200;2023-11-19T00:47:40;9.20;99.90
9486;DHT22;4781;48.776;9.200;2023-11-19T00:50:09;9.30;99.90
9486;DHT22;4781;48.776;9.200;2023-11-19T00:52:38;9.30;99.90
9486;DHT22;4781;48.776;9.200;2023-11-19T00:55:07;9.30;99.90
9486;DHT22;4781;48.776;9.200;2023-11-19T00:57:35;9.30;99.90
9486;DHT22;4781;48.776;9.200;2023-11-19T01:00:05;9.40;99.90
9486;DHT22;4781;48.776;9.200;2023-11-19T01:02:35;9.40;99.90
9486;DHT22;4781;48.776;9.200;2023-11-19T01:05:04;9.40;99.90
9486;DHT22;4781;48.776;9.200;2023-11-19T01:07:34;9.40;99.90
9486;DHT22;4781;48.776;9.200;2023-11-19T01:10:02;9.40;99.90
9486;DHT22;4781;48.776;9.200;2023-11-19T01:12:31;9.50;99.90
9486;DHT22;4781;48.776;9.200;2023-11-19T01:14:59;9.50;99.90
9486;DHT22;4781;48.776;9.200;2023-11-19T01:17:28;9.50;99.90
9486;DHT22;4781;48.776;9.200;2023-11-19T01:19:58;9.50;99.90
9486;DHT22;4781;48.776;9.200;2023-11-19T01:22:26;9.60;99.90
9486;DHT22;4781;48.776;9.200;2023-11-19T01:24:55;9.60;99.90
9486;DHT22;4781;48.776;9.200;2023-11-19T01:27:24;9.60;99.90
9486;DHT22;4781;48.776;9.200;2023-11-19T01:29:53;9.60;99.90
9486;DHT22;4781;48.776;9.200;2023-11-19T01:32:21;9.70;99.90
9486;DHT22;4781;48.776;9.200;2023-11-19T01:34:52;9.60;99.90
9486;DHT22;4781;48.776;9.200;2023-11-19T01:37:21;9.60;99.90
9486;DHT22;4781;48.776;9.200;2023-11-19T01:39:50;9.60;99.90
9486;DHT22;4781;48.776;9.200;2023-11-19T01:42:18;9.70;99.90
9486;DHT22;4781;48.776;9.200;2023-11-19T01:44:59;9.60;99.90
9486;DHT22;4781;48.776;9.200;2023-11-19T01:47:29;9.20;99.90
9486;DHT22;4781;48.776;9.200;2023-11-19T01:49:59;9.60;99.90
9486;DHT22;4781;48.776;9.200;2023-11-19T01:52:27;9.60;99.90
9486;DHT22;4781;48.776;9.200;2023-11-19T01:54:56;9.70;99.90
9486;DHT22;4781;48.776;9.200;2023-11-19T01:57:24;9.60;99.90
9486;DHT22;4781;48.776;9.200;2023-11-19T01:59:54;9.60;99.90
9486;DHT22;4781;48.776;9.200;2023-11-19T02:02:22;9.60;99.90
9486;DHT22;4781;48.776;9.200;2023-11-19T02:04:51;9.50;99.90
9486;DHT22;4781;48.776;9.200;2023-11-19T02:07:20;9.50;99.90
9486;DHT22;4781;48.776;9.200;2023-11-19T02:09:48;9.60;99.90
9486;DHT22;4781;48.776;9.200;2023-11-19T02:12:17;9.60;99.90
9486;DHT22;4781;48.776;9.200;2023-11-19T02:14:47;9.60;99.90
9486;DHT22;4781;48.776;9.200;2023-11-19T02:17:28;9.60;99.90
9486;DHT22;4781;48.776;9.200;2023-11-19T02:20:02;9.60;99.90
9486;DHT22;4781;48.776;9.200;2023-11-19T02:22:32;9.60;99.90
9486;DHT22;4781;48.776;9.200;2023-11-19T02:25:11;9.60;99.90
9486;DHT22;4781;48.776;9.200;2023-11-19T02:27:57;9.60;99.90
9486;DHT22;4781;48.776;9.200;2023-11-19T02:30:27;9.60;99.90
9486;DHT22;4781;48.776;9.200;2023-11-19T02:32:56;9.60;99.90
9486;DHT22;4781;48.776;9.200;2023-11-19T02:35:25;9.60;99.90
9486;DHT22;4781;48.776;9.200;2023-11-19T02:37:56;9.60;99.90
9486;DHT22;4781;48.776;9.200;2023-11-19T02:40:30;9.70;99.90
9486;DHT22;4781;48.776;9.200;2023-11-19T02:42:58;9.70;99.90
9486;DHT22;4781;48.776;9.200;2023-11-19T02:45:27;9.70;99.90
9486;DHT22;4781;48.776;9.200;2023-11-19T02:47:57;9.80;99.90
9486;DHT22;4781;48.776;9.200;2023-11-19T02:50:27;9.80;99.90
9486;DHT22;4781;48.776;9.200;2023-11-19T02:52:56;9.80;99.90
9486;DHT22;4781;48.776;9.200;2023-11-19T02:55:24;9.90;99.90
9486;DHT22;4781;48.776;9.200;2023-11-19T02:57:54;9.90;99.90
9486;DHT22;4781;48.776;9.200;2023-11-19T03:00:24;9.90;99.90
9486;DHT22;4781;48.776;9.200;2023-11-19T03:03:00;9.90;99.90
9486;DHT22;4781;48.776;9.200;2023-11-19T03:05:39;9.90;99.90
9486;DHT22;4781;48.776;9.200;2023-11-19T03:08:08;9.90;99.90
9486;DHT22;4781;48.776;9.200;2023-11-19T03:10:36;9.90;99.90
9486;DHT22;4781;48.776;9.200;2023-11-19T03:13:05;9.90;99.90
9486;DHT22;4781;48.776;9.200;2023-11-19T03:15:34;9.90;99.90
9486;DHT22;4781;48.776;9.200;2023-11-19T03:18:02;9.90;99.90
9486;DHT22;4781;48.776;9.200;2023-11-19T03:20:31;9.90;99.90
9486;DHT22;4781;48.776;9.200;2023-11-19T03:22:59;9.90;99.90
9486;DHT22;4781;48.776;9.200;2023-11-19T03:25:28;9.90;99.90
9486;DHT22;4781;48.776;9.200;2023-11-19T03:28:04;9.90;99.90
9486;DHT22;4781;48.776;9.200;2023-11-19T03:30:32;9.90;99.90
9486;DHT22;4781;48.776;9.200;2023-11-19T03:33:01;9.90;99.90
9486;DHT22;4781;48.776;9.200;2023-11-19T03:35:30;9.90;99.90
9486;DHT22;4781;48.776;9.200;2023-11-19T03:37:59;9.90;99.90
9486;DHT22;4781;48.776;9.200;2023-11-19T03:40:28;10.00;99.90
9486;DHT22;4781;48.776;9.200;2023-11-19T03:42:57;9.90;99.90
9486;DHT22;4781;48.776;9.200;2023-11-19T03:45:25;9.90;99.90
9486;DHT22;4781;48.776;9.200;2023-11-19T03:47:54;10.00;99.90
9486;DHT22;4781;48.776;9.200;2023-11-19T03:50:22;10.00;99.90
9486;DHT22;4781;48.776;9.200;2023-11-19T03:52:50;10.00;99.90
9486;DHT22;4781;48.776;9.200;2023-11-19T03:55:19;10.00;99.90
9486;DHT22;4781;48.776;9.200;2023-11-19T03:57:47;10.00;99.90
9486;DHT22;4781;48.776;9.200;2023-11-19T04:00:16;10.00;99.90
9486;DHT22;4781;48.776;9.200;2023-11-19T04:02:44;10.10;99.90
9486;DHT22;4781;48.776;9.200;2023-11-19T04:05:13;10.10;99.90
9486;DHT22;4781;48.776;9.200;2023-11-19T04:07:41;10.10;99.90
9486;DHT22;4781;48.776;9.200;2023-11-19T04:10:10;10.20;99.90
9486;DHT22;4781;48.776;9.200;2023-11-19T04:12:38;10.20;99.90
9486;DHT22;4781;48.776;9.200;2023-11-19T04:15:07;10.30;99.90
9486;DHT22;4781;48.776;9.200;2023-11-19T04:17:35;10.30;99.90
9486;DHT22;4781;48.776;9.200;2023-11-19T04:20:04;10.40;99.90
9486;DHT22;4781;48.776;9.200;2023-11-19T04:22:35;10.40;99.90
9486;DHT22;4781;48.776;9.200;2023-11-19T04:25:04;10.50;99.90
9486;DHT22;4781;48.776;9.200;2023-11-19T04:27:32;10.50;99.90
9486;DHT22;4781;48.776;9.200;2023-11-19T04:30:01;10.50;99.90
9486;DHT22;4781;48.776;9.200;2023-11-19T04:32:30;10.60;99.90
9486;DHT22;4781;48.776;9.200;2023-11-19T04:34:58;10.60;99.90
9486;DHT22;4781;48.776;9.200;2023-11-19T04:37:26;10.60;99.90
9486;DHT22;4781;48.776;9.200;2023-11-19T04:39:55;10.70;99.90
9486;DHT22;4781;48.776;9.200;2023-11-19T04:42:23;10.70;99.90
9486;DHT22;4781;48.776;9.200;2023-11-19T04:44:52;10.70;99.90
9486;DHT22;4781;48.776;9.200;2023-11-19T04:47:20;10.70;99.90
9486;DHT22;4781;48.776;9.200;2023-11-19T04:49:49;10.70;99.90
9486;DHT22;4781;48.776;9.200;2023-11-19T04:52:17;10.80;99.90
9486;DHT22;4781;48.776;9.200;2023-11-19T04:54:45;10.80;99.90
9486;DHT22;4781;48.776;9.200;2023-11-19T04:57:14;10.80;99.90
9486;DHT22;4781;48.776;9.200;2023-11-19T04:59:43;10.90;99.90
9486;DHT22;4781;48.776;9.200;2023-11-19T05:02:11;10.90;99.90
9486;DHT22;4781;48.776;9.200;2023-11-19T05:04:44;11.00;99.90
9486;DHT22;4781;48.776;9.200;2023-11-19T05:07:13;11.00;99.90
9486;DHT22;4781;48.776;9.200;2023-11-19T05:09:41;11.00;99.90
9486;DHT22;4781;48.776;9.200;2023-11-19T05:12:10;11.00;99.90
9486;DHT22;4781;48.776;9.200;2023-11-19T05:14:38;11.00;99.90
9486;DHT22;4781;48.776;9.200;2023-11-19T05:17:07;11.00;99.90
9486;DHT22;4781;48.776;9.200;2023-11-19T05:19:35;11.00;99.90
9486;DHT22;4781;48.776;9.200;2023-11-19T05:22:04;11.00;99.90
9486;DHT22;4781;48.776;9.200;2023-11-19T05:24:34;11.00;99.90
9486;DHT22;4781;48.776;9.200;2023-11-19T05:27:02;11.10;99.90
9486;DHT22;4781;48.776;9.200;2023-11-19T05:29:31;11.00;99.90
9486;DHT22;4781;48.776;9.200;2023-11-19T05:31:59;11.00;99.90
9486;DHT22;4781;48.776;9.200;2023-11-19T05:34:28;11.10;99.90
9486;DHT22;4781;48.776;9.200;2023-11-19T05:36:56;11.10;99.90
9486;DHT22;4781;48.776;9.200;2023-11-19T05:39:25;11.10;99.90
9486;DHT22;4781;48.776;9.200;2023-11-19T05:41:54;11.10;99.90
9486;DHT22;4781;48.776;9.200;2023-11-19T05:44:23;11.10;99.90
9486;DHT22;4781;48.776;9.200;2023-11-19T05:46:51;11.10;99.90
9486;DHT22;4781;48.776;9.200;2023-11-19T05:49:20;11.10;99.90
9486;DHT22;4781;48.776;9.200;2023-11-19T05:51:48;11.20;99.90
9486;DHT22;4781;48.776;9.200;2023-11-19T05:54:17;11.20;99.90
9486;DHT22;4781;48.776;9.200;2023-11-19T05:56:48;11.20;99.90
9486;DHT22;4781;48.776;9.200;2023-11-19T05:59:16;11.20;99.90
9486;DHT22;4781;48.776;9.200;2023-11-19T06:01:45;11.20;99.90
9486;DHT22;4781;48.776;9.200;2023-11-19T06:04:13;11.30;99.90
9486;DHT22;4781;48.776;9.200;2023-11-19T06:06:42;11.30;99.90
9486;DHT22;4781;48.776;9.200;2023-11-19T06:09:10;11.30;99.90
9486;DHT22;4781;48.776;9.200;2023-11-19T06:11:39;11.40;99.90
9486;DHT22;4781;48.776;9.200;2023-11-19T06:14:07;12.10;99.90
9486;DHT22;4781;48.776;9.200;2023-11-19T06:16:36;11.40;99.90
9486;DHT22;4781;48.776;9.200;2023-11-19T06:19:06;11.40;99.90
9486;DHT22;4781;48.776;9.200;2023-11-19T06:21:34;11.50;99.90
9486;DHT22;4781;48.776;9.200;2023-11-19T06:24:04;11.50;99.90
9486;DHT22;4781;48.776;9.200;2023-11-19T06:26:32;11.60;99.90
9486;DHT22;4781;48.776;9.200;2023-11-19T06:29:01;11.60;99.90
9486;DHT22;4781;48.776;9.200;2023-11-19T06:31:29;11.60;99.90
9486;DHT22;4781;48.776;9.200;2023-11-19T06:33:57;11.60;99.90
9486;DHT22;4781;48.776;9.200;2023-11-19T06:36:26;11.70;99.90
9486;DHT22;4781;48.776;9.200;2023-11-19T06:38:54;11.70;99.90
9486;DHT22;4781;48.776;9.200;2023-11-19T06:41:23;11.70;99.90
9486;DHT22;4781;48.776;9.200;2023-11-19T06:43:51;11.60;99.90
9486;DHT22;4781;48.776;9.200;2023-11-19T06:46:19;11.60;99.90
9486;DHT22;4781;48.776;9.200;2023-11-19T06:48:48;11.60;99.90
9486;DHT22;4781;48.776;9.200;2023-11-19T06:51:16;11.60;99.90
9486;DHT22;4781;48.776;9.200;2023-11-19T06:53:45;11.60;99.90
9486;DHT22;4781;48.776;9.200;2023-11-19T06:56:20;11.60;99.90
9486;DHT22;4781;48.776;9.200;2023-11-19T06:58:50;11.70;99.90
9486;DHT22;4781;48.776;9.200;2023-11-19T07:01:19;11.60;99.90
9486;DHT22;4781;48.776;9.200;2023-11-19T07:03:47;11.70;99.90
9486;DHT22;4781;48.776;9.200;2023-11-19T07:06:17;11.60;99.90
9486;DHT22;4781;48.776;9.200;2023-11-19T07:08:46;11.60;99.90
9486;DHT22;4781;48.776;9.200;2023-11-19T07:11:14;11.60;99.90
9486;DHT22;4781;48.776;9.200;2023-11-19T07:13:43;11.60;99.90
9486;DHT22;4781;48.776;9.200;2023-11-19T07:16:14;11.60;99.90
9486;DHT22;4781;48.776;9.200;2023-11-19T07:18:43;11.60;99.90
9486;DHT22;4781;48.776;9.200;2023-11-19T07:21:11;11.60;99.90
9486;DHT22;4781;48.776;9.200;2023-11-19T07:23:40;11.60;99.90
9486;DHT22;4781;48.776;9.200;2023-11-19T07:26:08;11.60;99.90
9486;DHT22;4781;48.776;9.200;2023-11-19T07:28:37;11.60;99.90
9486;DHT22;4781;48.776;9.200;2023-11-19T07:31:07;11.60;99.90
9486;DHT22;4781;48.776;9.200;2023-11-19T07:33:35;11.60;99.90
9486;DHT22;4781;48.776;9.200;2023-11-19T07:36:04;11.70;99.90
9486;DHT22;4781;48.776;9.200;2023-11-19T07:38:34;11.70;99.90
9486;DHT22;4781;48.776;9.200;2023-11-19T07:41:02;11.80;99.90
9486;DHT22;4781;48.776;9.200;2023-11-19T07:43:32;11.80;99.90
9486;DHT22;4781;48.776;9.200;2023-11-19T07:46:00;11.90;99.90
9486;DHT22;4781;48.776;9.200;2023-11-19T07:48:30;11.90;99.90
9486;DHT22;4781;48.776;9.200;2023-11-19T07:50:58;11.90;99.90
9486;DHT22;4781;48.776;9.200;2023-11-19T07:53:27;12.00;99.90
9486;DHT22;4781;48.776;9.200;2023-11-19T07:55:56;12.00;99.90
9486;DHT22;4781;48.776;9.200;2023-11-19T07:58:26;12.00;99.90
9486;DHT22;4781;48.776;9.200;2023-11-19T08:00:54;12.10;99.90
9486;DHT22;4781;48.776;9.200;2023-11-19T08:03:22;12.10;99.90
9486;DHT22;4781;48.776;9.200;2023-11-19T08:05:51;12.00;99.90
9486;DHT22;4781;48.776;9.200;2023-11-19T08:08:19;12.00;99.90
9486;DHT22;4781;48.776;9.200;2023-11-19T08:10:48;12.00;99.90
9486;DHT22;4781;48.776;9.200;2023-11-19T08:13:20;12.10;99.90
9486;DHT22;4781;48.776;9.200;2023-11-19T08:15:49;12.10;99.90
9486;DHT22;4781;48.776;9.200;2023-11-19T08:18:18;12.20;99.90
9486;DHT22;4781;48.776;9.200;2023-11-19T08:20:46;12.20;99.90
9486;DHT22;4781;48.776;9.200;2023-11-19T08:23:16;12.30;99.90
9486;DHT22;4781;48.776;9.200;2023-11-19T08:25:45;12.30;99.90
9486;DHT22;4781;48.776;9.200;2023-11-19T08:28:13;12.30;99.90
9486;DHT22;4781;48.776;9.200;2023-11-19T08:30:42;12.30;99.90
9486;DHT22;4781;48.776;9.200;2023-11-19T08:33:10;12.40;99.90
9486;DHT22;4781;48.776;9.200;2023-11-19T08:35:39;12.40;99.90
9486;DHT22;4781;48.776;9.200;2023-11-19T08:38:07;12.50;99.90
9486;DHT22;4781;48.776;9.200;2023-11-19T08:40:35;12.60;99.90
9486;DHT22;4781;48.776;9.200;2023-11-19T08:43:05;12.70;99.90
9486;DHT22;4781;48.776;9.200;2023-11-19T08:45:33;12.80;99.90
9486;DHT22;4781;48.776;9.200;2023-11-19T08:48:03;12.90;99.90
9486;DHT22;4781;48.776;9.200;2023-11-19T08:50:31;12.90;99.90
9486;DHT22;4781;48.776;9.200;2023-11-19T08:53:00;12.90;99.90
9486;DHT22;4781;48.776;9.200;2023-11-19T08:55:28;12.90;99.90
9486;DHT22;4781;48.776;9.200;2023-11-19T08:58:00;12.80;99.90
9486;DHT22;4781;48.776;9.200;2023-11-19T09:00:28;12.80;99.90
9486;DHT22;4781;48.776;9.200;2023-11-19T09:02:59;12.80;99.90
9486;DHT22;4781;48.776;9.200;2023-11-19T09:05:28;12.80;99.90
9486;DHT22;4781;48.776;9.200;2023-11-19T09:07:56;12.80;99.90
9486;DHT22;4781;48.776;9.200;2023-11-19T09:10:24;13.10;99.90
9486;DHT22;4781;48.776;9.200;2023-11-19T09:12:54;13.20;99.90
9486;DHT22;4781;48.776;9.200;2023-11-19T09:15:22;13.40;99.90
9486;DHT22;4781;48.776;9.200;2023-11-19T09:17:50;13.40;99.90
9486;DHT22;4781;48.776;9.200;2023-11-19T09:20:19;13.60;99.90
9486;DHT22;4781;48.776;9.200;2023-11-19T09:22:47;13.60;99.90
9486;DHT22;4781;48.776;9.200;2023-11-19T09:25:15;13.60;99.90
9486;DHT22;4781;48.776;9.200;2023-11-19T09:27:44;13.50;99.90
9486;DHT22;4781;48.776;9.200;2023-11-19T09:30:13;13.50;99.90
9486;DHT22;4781;48.776;9.200;2023-11-19T09:32:41;13.40;99.90
9486;DHT22;4781;48.776;9.200;2023-11-19T09:35:10;13.40;99.90
9486;DHT22;4781;48.776;9.200;2023-11-19T09:37:40;13.40;99.90
9486;DHT22;4781;48.776;9.200;2023-11-19T09:40:08;13.60;99.90
9486;DHT22;4781;48.776;9.200;2023-11-19T09:42:47;13.70;99.90
9486;DHT22;4781;48.776;9.200;2023-11-19T09:45:14;13.70;99.90
9486;DHT22;4781;48.776;9.200;2023-11-19T09:47:45;13.70;99.90
9486;DHT22;4781;48.776;9.200;2023-11-19T09:50:17;13.70;99.90
9486;DHT22;4781;48.776;9.200;2023-11-19T09:52:47;13.80;99.90
9486;DHT22;4781;48.776;9.200;2023-11-19T09:55:15;13.90;99.90
9486;DHT22;4781;48.776;9.200;2023-11-19T09:57:45;14.10;99.90
9486;DHT22;4781;48.776;9.200;2023-11-19T10:00:15;14.30;99.90
9486;DHT22;4781;48.776;9.200;2023-11-19T10:02:45;14.40;99.90
9486;DHT22;4781;48.776;9.200;2023-11-19T10:05:15;14.40;99.90
9486;DHT22;4781;48.776;9.200;2023-11-19T10:07:43;14.50;99.90
9486;DHT22;4781;48.776;9.200;2023-11-19T10:10:12;14.60;99.90
9486;DHT22;4781;48.776;9.200;2023-11-19T10:12:43;14.70;99.90
9486;DHT22;4781;48.776;9.200;2023-11-19T10:15:22;14.80;99.90
9486;DHT22;4781;48.776;9.200;2023-11-19T10:17:58;14.80;99.90
9486;DHT22;4781;48.776;9.200;2023-11-19T10:20:27;14.70;99.90
9486;DHT22;4781;48.776;9.200;2023-11-19T10:22:55;14.70;99.90
9486;DHT22;4781;48.776;9.200;2023-11-19T10:25:28;14.70;99.90
9486;DHT22;4781;48.776;9.200;2023-11-19T10:27:58;14.70;99.90
9486;DHT22;4781;48.776;9.200;2023-11-19T10:30:28;14.70;99.90
9486;DHT22;4781;48.776;9.200;2023-11-19T10:35:56;14.60;99.90
9486;DHT22;4781;48.776;9.200;2023-11-19T10:38:25;14.50;99.90
9486;DHT22;4781;48.776;9.200;2023-11-19T10:40:54;14.60;99.90
9486;DHT22;4781;48.776;9.200;2023-11-19T10:43:23;14.60;99.90
9486;DHT22;4781;48.776;9.200;2023-11-19T10:45:52;14.60;99.90
9486;DHT22;4781;48.776;9.200;2023-11-19T10:48:20;14.70;99.90
9486;DHT22;4781;48.776;9.200;2023-11-19T10:50:53;14.70;99.90
9486;DHT22;4781;48.776;9.200;2023-11-19T10:53:23;14.80;99.90
9486;DHT22;4781;48.776;9.200;2023-11-19T10:55:54;14.80;99.90
9486;DHT22;4781;48.776;9.200;2023-11-19T10:58:25;14.90;99.90
9486;DHT22;4781;48.776;9.200;2023-11-19T11:00:57;14.90;99.90
9486;DHT22;4781;48.776;9.200;2023-11-19T11:03:39;14.90;99.90
9486;DHT22;4781;48.776;9.200;2023-11-19T11:06:06;14.90;99.90
9486;DHT22;4781;48.776;9.200;2023-11-19T11:08:37;15.00;99.90
9486;DHT22;4781;48.776;9.200;2023-11-19T11:11:07;15.00;99.90
9486;DHT22;4781;48.776;9.200;2023-11-19T11:13:37;14.90;99.90
9486;DHT22;4781;48.776;9.200;2023-11-19T11:16:08;14.90;99.90
9486;DHT22;4781;48.776;9.200;2023-11-19T11:18:37;14.80;99.90
9486;DHT22;4781;48.776;9.200;2023-11-19T11:21:11;14.80;99.90
9486;DHT22;4781;48.776;9.200;2023-11-19T11:23:56;14.70;99.90
9486;DHT22;4781;48.776;9.200;2023-11-19T11:27:43;14.70;99.90
9486;DHT22;4781;48.776;9.200;2023-11-19T11:37:39;14.60;99.90
9486;DHT22;4781;48.776;9.200;2023-11-19T11:40:15;14.50;99.90
9486;DHT22;4781;48.776;9.200;2023-11-19T11:42:45;14.50;99.90
9486;DHT22;4781;48.776;9.200;2023-11-19T11:45:14;14.50;99.90
9486;DHT22;4781;48.776;9.200;2023-11-19T11:50:17;14.40;99.90
9486;DHT22;4781;48.776;9.200;2023-11-19T11:55:37;14.50;99.90
9486;DHT22;4781;48.776;9.200;2023-11-19T11:58:07;14.60;99.90
9486;DHT22;4781;48.776;9.200;2023-11-19T12:00:42;14.60;99.90
9486;DHT22;4781;48.776;9.200;2023-11-19T12:03:10;14.70;99.90
9486;DHT22;4781;48.776;9.200;2023-11-19T12:05:44;14.80;99.90
9486;DHT22;4781;48.776;9.200;2023-11-19T12:08:13;14.90;99.90
9486;DHT22;4781;48.776;9.200;2023-11-19T12:10:50;15.00;99.90
9486;DHT22;4781;48.776;9.200;2023-11-19T12:13:23;15.00;99.90
9486;DHT22;4781;48.776;9.200;2023-11-19T12:18:30;15.10;99.90
9486;DHT22;4781;48.776;9.200;2023-11-19T12:20:59;15.20;99.90
9486;DHT22;4781;48.776;9.200;2023-11-19T12:23:30;15.40;99.90
9486;DHT22;4781;48.776;9.200;2023-11-19T12:26:00;15.40;99.90
9486;DHT22;4781;48.776;9.200;2023-11-19T12:28:28;15.30;99.90
9486;DHT22;4781;48.776;9.200;2023-11-19T12:31:09;15.30;99.90
9486;DHT22;4781;48.776;9.200;2023-11-19T12:33:38;15.40;99.90
9486;DHT22;4781;48.776;9.200;2023-11-19T12:36:07;15.30;99.90
9486;DHT22;4781;48.776;9.200;2023-11-19T12:38:36;15.30;99.90
9486;DHT22;4781;48.776;9.200;2023-11-19T12:41:08;15.20;99.90
9486;DHT22;4781;48.776;9.200;2023-11-19T12:43:41;15.10;99.90
9486;DHT22;4781;48.776;9.200;2023-11-19T12:46:22;15.10;99.90
9486;DHT22;4781;48.776;9.200;2023-11-19T12:48:53;15.10;99.90
9486;DHT22;4781;48.776;9.200;2023-11-19T12:51:21;15.00;99.90
9486;DHT22;4781;48.776;9.200;2023-11-19T12:53:51;15.00;99.90
9486;DHT22;4781;48.776;9.200;2023-11-19T12:56:22;14.90;99.90
9486;DHT22;4781;48.776;9.200;2023-11-19T12:58:50;15.00;99.90
9486;DHT22;4781;48.776;9.200;2023-11-19T13:01:21;15.00;99.90
9486;DHT22;4781;48.776;9.200;2023-11-19T13:03:49;15.00;99.90
9486;DHT22;4781;48.776;9.200;2023-11-19T13:06:18;15.00;99.90
9486;DHT22;4781;48.776;9.200;2023-11-19T13:08:51;15.10;99.90
9486;DHT22;4781;48.776;9.200;2023-11-19T13:11:32;15.10;99.90
9486;DHT22;4781;48.776;9.200;2023-11-19T13:14:04;15.10;99.90
9486;DHT22;4781;48.776;9.200;2023-11-19T13:16:36;15.10;99.90
9486;DHT22;4781;48.776;9.200;2023-11-19T13:19:05;15.10;99.90
9486;DHT22;4781;48.776;9.200;2023-11-19T13:21:33;15.10;99.90
9486;DHT22;4781;48.776;9.200;2023-11-19T13:24:03;15.10;99.90
9486;DHT22;4781;48.776;9.200;2023-11-19T13:26:32;15.10;99.90
9486;DHT22;4781;48.776;9.200;2023-11-19T13:29:01;15.10;99.90
9486;DHT22;4781;48.776;9.200;2023-11-19T13:31:29;15.10;99.90
9486;DHT22;4781;48.776;9.200;2023-11-19T13:33:58;15.00;99.90
9486;DHT22;4781;48.776;9.200;2023-11-19T13:36:26;15.00;99.90
9486;DHT22;4781;48.776;9.200;2023-11-19T13:38:54;15.00;99.90
9486;DHT22;4781;48.776;9.200;2023-11-19T13:41:26;15.00;99.90
9486;DHT22;4781;48.776;9.200;2023-11-19T13:43:54;15.00;99.90
9486;DHT22;4781;48.776;9.200;2023-11-19T13:46:23;14.90;99.90
9486;DHT22;4781;48.776;9.200;2023-11-19T13:48:51;14.90;99.90
9486;DHT22;4781;48.776;9.200;2023-11-19T13:51:20;14.60;99.90
9486;DHT22;4781;48.776;9.200;2023-11-19T13:53:48;14.90;99.90
9486;DHT22;4781;48.776;9.200;2023-11-19T13:56:17;14.80;99.90
9486;DHT22;4781;48.776;9.200;2023-11-19T13:58:45;14.80;99.90
9486;DHT22;4781;48.776;9.200;2023-11-19T14:01:14;14.70;99.90
9486;DHT22;4781;48.776;9.200;2023-11-19T14:03:42;14.70;99.90
9486;DHT22;4781;48.776;9.200;2023-11-19T14:06:11;14.70;99.90
9486;DHT22;4781;48.776;9.200;2023-11-19T14:08:39;14.70;99.90
9486;DHT22;4781;48.776;9.200;2023-11-19T14:11:08;14.60;99.90
9486;DHT22;4781;48.776;9.200;2023-11-19T14:13:36;14.60;99.90
9486;DHT22;4781;48.776;9.200;2023-11-19T14:16:05;14.50;99.90
9486;DHT22;4781;48.776;9.200;2023-11-19T14:18:35;14.50;99.90
9486;DHT22;4781;48.776;9.200;2023-11-19T14:21:04;14.50;99.90
9486;DHT22;4781;48.776;9.200;2023-11-19T14:23:32;14.40;99.90
9486;DHT22;4781;48.776;9.200;2023-11-19T14:26:00;14.40;99.90
9486;DHT22;4781;48.776;9.200;2023-11-19T14:28:29;14.40;99.90
9486;DHT22;4781;48.776;9.200;2023-11-19T14:30:57;14.40;99.90
9486;DHT22;4781;48.776;9.200;2023-11-19T14:33:26;14.30;99.90
9486;DHT22;4781;48.776;9.200;2023-11-19T14:35:54;14.30;99.90
9486;DHT22;4781;48.776;9.200;2023-11-19T14:38:23;14.30;99.90
9486;DHT22;4781;48.776;9.200;2023-11-19T14:40:51;14.30;99.90
9486;DHT22;4781;48.776;9.200;2023-11-19T14:43:19;14.30;99.90
9486;DHT22;4781;48.776;9.200;2023-11-19T14:45:48;14.30;99.90
9486;DHT22;4781;48.776;9.200;2023-11-19T14:48:17;14.20;99.90
9486;DHT22;4781;48.776;9.200;2023-11-19T14:50:45;14.30;99.90
9486;DHT22;4781;48.776;9.200;2023-11-19T14:53:14;14.30;99.90
9486;DHT22;4781;48.776;9.200;2023-11-19T14:55:42;14.20;99.90
9486;DHT22;4781;48.776;9.200;2023-11-19T14:58:10;14.20;99.90
9486;DHT22;4781;48.776;9.200;2023-11-19T15:00:40;14.20;99.90
9486;DHT22;4781;48.776;9.200;2023-11-19T15:03:09;14.10;99.90
9486;DHT22;4781;48.776;9.200;2023-11-19T15:05:38;14.10;99.90
9486;DHT22;4781;48.776;9.200;2023-11-19T15:08:07;14.10;99.90
9486;DHT22;4781;48.776;9.200;2023-11-19T15:10:35;14.00;99.90
9486;DHT22;4781;48.776;9.200;2023-11-19T15:13:04;14.10;99.90
9486;DHT22;4781;48.776;9.200;2023-11-19T15:15:33;14.00;99.90
9486;DHT22;4781;48.776;9.200;2023-11-19T15:18:01;14.00;99.90
9486;DHT22;4781;48.776;9.200;2023-11-19T15:20:29;13.90;99.90
9486;DHT22;4781;48.776;9.200;2023-11-19T15:22:58;13.90;99.90
9486;DHT22;4781;48.776;9.200;2023-11-19T15:25:26;13.90;99.90
9486;DHT22;4781;48.776;9.200;2023-11-19T15:27:55;13.70;99.90
9486;DHT22;4781;48.776;9.200;2023-11-19T15:30:23;13.80;99.90
9486;DHT22;4781;48.776;9.200;2023-11-19T15:32:52;13.70;99.90
9486;DHT22;4781;48.776;9.200;2023-11-19T15:35:21;13.60;99.90
9486;DHT22;4781;48.776;9.200;2023-11-19T15:37:50;13.60;99.90
9486;DHT22;4781;48.776;9.200;2023-11-19T15:40:18;13.60;99.90
9486;DHT22;4781;48.776;9.200;2023-11-19T15:42:47;13.50;99.90
9486;DHT22;4781;48.776;9.200;2023-11-19T15:45:15;13.50;99.90
9486;DHT22;4781;48.776;9.200;2023-11-19T15:47:44;13.50;99.90
9486;DHT22;4781;48.776;9.200;2023-11-19T15:50:12;13.50;99.90
9486;DHT22;4781;48.776;9.200;2023-11-19T15:52:40;13.50;99.90
9486;DHT22;4781;48.776;9.200;2023-11-19T15:55:10;13.50;99.90
9486;DHT22;4781;48.776;9.200;2023-11-19T15:57:39;13.40;99.90
9486;DHT22;4781;48.776;9.200;2023-11-19T16:00:08;13.30;99.90
9486;DHT22;4781;48.776;9.200;2023-11-19T16:02:37;13.30;99.90
9486;DHT22;4781;48.776;9.200;2023-11-19T16:05:06;13.30;99.90
9486;DHT22;4781;48.776;9.200;2023-11-19T16:07:36;13.30;99.90
9486;DHT22;4781;48.776;9.200;2023-11-19T16:10:04;13.30;99.90
9486;DHT22;4781;48.776;9.200;2023-11-19T16:12:35;13.30;99.90
9486;DHT22;4781;48.776;9.200;2023-11-19T16:15:04;13.30;99.90
9486;DHT22;4781;48.776;9.200;2023-11-19T16:17:32;13.30;99.90
9486;DHT22;4781;48.776;9.200;2023-11-19T16:20:05;13.20;99.90
9486;DHT22;4781;48.776;9.200;2023-11-19T16:22:33;13.20;99.90
9486;DHT22;4781;48.776;9.200;2023-11-19T16:25:02;13.20;99.90
9486;DHT22;4781;48.776;9.200;2023-11-19T16:27:30;13.10;99.90
9486;DHT22;4781;48.776;9.200;2023-11-19T16:29:59;13.10;99.90
9486;DHT22;4781;48.776;9.200;2023-11-19T16:32:28;13.10;99.90
9486;DHT22;4781;48.776;9.200;2023-11-19T16:34:57;13.10;99.90
9486;DHT22;4781;48.776;9.200;2023-11-19T16:37:25;13.00;99.90